Cottleville, MO (63338)

7:27 PM CDT on August 01, 2015 (GMT -0500)
Madison Park | | Change Station
CLOSE
Current Station
Personal Weather Station
Location: Cottleville, MO
Elevation: 478 ft
Nearby Weather Stations

Elev 478 ft 38.76 °N, 90.65 °W | Updated 12 seconds ago

Mostly Cloudy
Mostly Cloudy
85.5 °F
Feels Like 92 °F
N
0.0
Wind Variable Wind from South
Gusts 0.0 mph

Today
High -- | Low -- °F
--% Chance of Precip.
Yesterday
High -- | Low -- °F
Precip. -- in
6:03 AM 8:13 PM
Waning Gibbous, 96% visible
Pressure 29.93 in
Visibility 10.0 miles
Clouds Scattered Clouds 6000 ft
Mostly Cloudy 20000 ft
Heat Index 92 °F
Dew Point 72 °F
Humidity 65%
Rainfall 0.00 in
Snow Depth Not available.
UV 1.0 out of 12
Pollen 7.10 out of 12
Air Quality Not available.
Flu Activity Not available.
METAR KSUS 012354Z 00000KT 10SM SCT060 BKN200 28/24 A2995 RMK AO2 SLP134 T02830239 10317 20278 58009

More Conditions Fewer Conditions

Pressure 29.93 in
Visibility 10.0 miles
Clouds Scattered Clouds 6000 ft
Mostly Cloudy 20000 ft
Heat Index 92 °F
Dew Point 72 °F
Humidity 65%
Rainfall 0.00 in
Snow Depth Not available.
UV 1.0 out of 12
Pollen 7.10 out of 12
Air Quality Not available.
Flu Activity Not available.
METAR KSUS 012354Z 00000KT 10SM SCT060 BKN200 28/24 A2995 RMK AO2 SLP134 T02830239 10317 20278 58009

More Conditions Fewer Conditions

10-Day Weather Forecast

×

Almanac

Astronomy

Aug. 01, 2015 Rise Set
Actual Time
Civil Twilight
Nautical Twilight
Astronomical Twilight
Moon
Length of Visible Light
Length of Day
Tomorrow will be .
, % of the Moon is Illuminated

Today's Extremes

State Highs State Lows

Community

WunderPhotos

Upload Photos

1,843,102 photos uploaded!

WunderBlogs® & News

Nearby

Air Quality

  Air Quality AQ Index Pollutant
Not available.

Snow Depth

Station Depth Elevation

Earthquake Activity

City Distance Mag. Time & Date
Minimum magnitude displayed is 2.5.

Coastal Water Temperatures

Place Temperature

Stations

Nearby Weather Stations

Station Location Temp. Windchill Dew Point Humidity Wind Precip. Elev Updated Type